Aérodrome :
LOGIN :

S'inscrire | Disclaimer

   EN    FR    IT 

 










Légende :    VFR   VFR Marginal   IFR   IFR Intensif   IFR Très Intensif
Visi : 
Plafond : 
>= 8 km
>= 3000ft
5 à 8 km
1000 à 3000 ft
1500m à 5 km
500 à 1000 ft
800 à 1500m
200 à 500 ft
< 800m
< 200 ft
Symboles :   Orages  Brouillard  Fortes neiges  Fortes précipitations  Vent > 20 kt
SIGMETs :   Divers  Orages  Givrage  Turbulence  Onde Orograph.  Cendres Volcan.







- Altitude de l'aérodrome : 267 ft


EGDR - Culdrose Navy

DERNIER METAR :
  • 222225Z 00000KT CAVOK 10/09 Q1018 BLU NOSIG

METARs EXPIRÉS :
  • 222150Z 00000KT CAVOK 10/08 Q1018 BLU NOSIG
  • 222127Z 00000KT CAVOK 11/08 Q1018 BLU NOSIG
  • 222050Z 00000KT CAVOK 12/09 Q1019 BLU NOSIG
  • 222021Z 00000KT CAVOK 12/10 Q1019 BLU NOSIG
  • 221950Z 27003KT CAVOK 12/10 Q1019 BLU NOSIG

TAF TAF EGDR
Valide du 22 à 21h jusqu'au 23 à 06h UTC


222011Z 2221/2306 VRB02KT 9999 FEW200
BECMG 2301/2303 2000 BR FEW001
PROB30
TEMPO 2301/2303 0500 FG SCT001
Pas de NOTAMs connus pour ce terrain.



MET'MAP, la Météo Aéronautique d'un coup d'oeil ! - Copyright ORBIFLY Décembre 2007 - Disclaimer

ORBIFLY MET'MAP TEAM :

Programmation & Développement : Alexandra Zaïnal
Conception & Développement : Baudouin d'Aumeries
Co-Programmation & Développement : Marc-Olivier Méhu
Soutien technique & logistique : Manuel Goepfert

Contact : metmap@orbifly.com




SOURCES & CREDITS :

   NOAA